createdAt,value
2022-12-27T00:10:21.456Z,981.82
2022-12-27T00:22:21.945Z,981.65
2022-12-27T00:34:22.373Z,981.81
2022-12-27T00:46:22.855Z,982.21
2022-12-27T00:58:23.296Z,982.53
2022-12-27T01:10:23.758Z,982.75
2022-12-27T01:22:24.202Z,982.82
2022-12-27T01:34:24.632Z,982.82
2022-12-27T01:46:25.095Z,983.04
2022-12-27T01:58:25.586Z,982.95
2022-12-27T02:10:26.005Z,983.02
2022-12-27T02:22:26.472Z,983.22
2022-12-27T02:34:26.916Z,983.36
2022-12-27T02:46:27.392Z,983.29
2022-12-27T02:58:27.826Z,983.55
2022-12-27T03:10:28.279Z,983.75
2022-12-27T03:22:28.721Z,983.69
2022-12-27T03:34:29.206Z,983.78
2022-12-27T03:46:29.666Z,983.96
2022-12-27T03:58:30.063Z,984.02
2022-12-27T04:10:30.524Z,984.12
2022-12-27T04:22:31.026Z,984.33
2022-12-27T04:34:31.420Z,984.48
2022-12-27T04:46:31.929Z,984.62
2022-12-27T04:58:32.337Z,985.01
2022-12-27T05:10:32.794Z,985.34
2022-12-27T05:22:33.250Z,985.62
2022-12-27T05:34:33.666Z,985.53
2022-12-27T05:46:34.155Z,985.58
2022-12-27T05:58:34.628Z,985.79
2022-12-27T06:10:35.055Z,986.10
2022-12-27T06:22:35.519Z,986.35
2022-12-27T06:34:35.940Z,986.57
2022-12-27T06:46:36.456Z,986.44
2022-12-27T06:58:36.821Z,986.84
2022-12-27T07:10:37.329Z,987.07
2022-12-27T07:22:37.777Z,987.26
2022-12-27T07:34:38.244Z,987.39
2022-12-27T07:46:38.673Z,987.54
2022-12-27T07:58:39.137Z,987.44
2022-12-27T08:10:39.584Z,987.48
2022-12-27T08:22:40.065Z,987.68
2022-12-27T08:34:40.532Z,987.45
2022-12-27T08:46:40.975Z,987.61
2022-12-27T08:58:41.395Z,987.90
2022-12-27T09:10:41.845Z,988.11
2022-12-27T09:22:42.292Z,988.36
2022-12-27T09:34:42.750Z,988.42
2022-12-27T09:46:43.274Z,988.46
2022-12-27T09:58:43.703Z,988.37
2022-12-27T10:10:44.107Z,988.69
2022-12-27T10:22:44.554Z,988.91
2022-12-27T10:34:44.984Z,988.78
2022-12-27T10:46:45.605Z,988.66
2022-12-27T10:58:45.940Z,988.44
2022-12-27T11:10:46.353Z,988.68
2022-12-27T11:22:46.843Z,988.78
2022-12-27T11:34:47.314Z,988.74
2022-12-27T11:46:47.814Z,988.73
2022-12-27T11:58:48.191Z,988.51
2022-12-27T12:10:48.658Z,988.26
2022-12-27T12:22:49.097Z,988.31
2022-12-27T12:34:49.540Z,988.43
2022-12-27T12:46:49.997Z,988.57
2022-12-27T12:58:50.487Z,988.37
2022-12-27T13:10:50.967Z,988.37
2022-12-27T13:22:51.360Z,988.36
2022-12-27T13:34:51.813Z,988.56
2022-12-27T13:46:52.286Z,988.49
2022-12-27T13:58:57.742Z,988.71
2022-12-27T14:11:00.471Z,988.89
2022-12-27T14:22:54.436Z,989.02
2022-12-27T14:34:59.055Z,989.17
2022-12-27T14:46:54.620Z,989.25
2022-12-27T14:58:55.012Z,989.32
2022-12-27T15:10:55.419Z,989.48
2022-12-27T15:22:55.904Z,989.70
2022-12-27T15:34:56.553Z,989.73
2022-12-27T15:46:56.830Z,989.66
2022-12-27T15:58:57.228Z,989.89
2022-12-27T16:10:57.695Z,989.91
2022-12-27T16:22:58.208Z,989.96
2022-12-27T16:28:58.194Z,990.09
2022-12-27T16:34:58.192Z,990.14
2022-12-27T16:46:58.631Z,990.16
2022-12-27T16:52:58.566Z,990.11
2022-12-27T16:58:58.599Z,990.29
2022-12-27T17:10:59.033Z,990.46
2022-12-27T17:22:59.522Z,990.37
2022-12-27T17:28:59.459Z,990.56
2022-12-27T17:34:59.503Z,990.68
2022-12-27T17:46:59.996Z,990.64
2022-12-27T17:52:59.953Z,990.66
2022-12-27T17:59:00.019Z,990.74
2022-12-27T18:11:00.415Z,990.75
2022-12-27T18:17:00.411Z,990.89
2022-12-27T18:23:00.440Z,990.92
2022-12-27T18:29:00.384Z,991.04
2022-12-27T18:35:07.358Z,990.97
2022-12-27T18:41:07.363Z,991.00
2022-12-27T18:47:07.380Z,991.07
2022-12-27T18:53:07.375Z,991.18
2022-12-27T18:59:07.391Z,991.23
2022-12-27T19:11:11.000Z,991.32
2022-12-27T19:17:11.547Z,991.12
2022-12-27T19:23:11.019Z,991.13
2022-12-27T19:29:10.983Z,991.02
2022-12-27T19:35:18.304Z,991.15
2022-12-27T19:41:18.427Z,991.06
2022-12-27T19:47:18.418Z,991.06
2022-12-27T19:53:18.457Z,991.10
2022-12-27T19:59:18.463Z,991.10
2022-12-27T20:05:18.651Z,991.14
2022-12-27T20:11:18.468Z,991.14
2022-12-27T20:23:18.912Z,991.03
2022-12-27T20:35:19.391Z,991.12
2022-12-27T20:41:19.428Z,991.03
2022-12-27T20:47:19.398Z,991.06
2022-12-27T20:59:19.869Z,991.17
2022-12-27T21:11:20.313Z,990.96
2022-12-27T21:23:20.774Z,991.06
2022-12-27T21:35:21.192Z,990.97
2022-12-27T21:47:21.599Z,991.07
2022-12-27T21:59:22.113Z,991.00
2022-12-27T22:11:22.559Z,990.99
2022-12-27T22:23:23.049Z,990.89
